This is the latest recevied weather packets stored in our database for station/object WD9EKA. If no packets are shown the sender has not sent any weather packets the latest 10 day(s).
| Time | Temp. | Humidity | Pressure | Rain* | Wind** | Luminosity | Snow |
|---|---|---|---|---|---|---|---|
| 1777657414 | 11.11° C | 65% | 1012.4 hPa | 0 mm | - | - | - |
| 1777657101 | 11.11° C | 63% | 1012.4 hPa | 0 mm | - | - | - |
| 1777656458 | 11.11° C | 65% | 1012.4 hPa | 0 mm | - | - | - |
| 1777656141 | 11.11° C | 67% | 1012.4 hPa | 0 mm | - | - | - |
| 1777655821 | 11.67° C | 66% | 1012.6 hPa | 0 mm | - | - | - |
| 1777655494 | 11.11° C | 70% | 1012.3 hPa | 0 mm | - | - | - |
| 1777655182 | 11.11° C | 66% | 1012.5 hPa | 0 mm | - | - | - |
| 1777654861 | 11.11° C | 69% | 1012.5 hPa | 0 mm | - | - | - |
| 1777654534 | 10.56° C | 69% | 1012.7 hPa | 0 mm | - | - | - |
| 1777654221 | 11.11° C | 66% | 1012.5 hPa | 0 mm | - | - | - |
| 1777653901 | 11.11° C | 68% | 1012.6 hPa | 0 mm | - | - | - |
| 1777653574 | 11.11° C | 66% | 1012.6 hPa | 0 mm | - | - | - |
| 1777653261 | 11.67° C | 65% | 1012.6 hPa | 0 mm | - | - | - |
| 1777652941 | 11.11° C | 70% | 1012.6 hPa | 0 mm | - | - | - |
| 1777652614 | 11.11° C | 65% | 1012.3 hPa | 0 mm | - | - | - |
| 1777652301 | 11.11° C | 68% | 1012.2 hPa | 0 mm | - | - | - |
| 1777651981 | 10.56° C | 70% | 1012.4 hPa | 0 mm | - | - | - |
| 1777651654 | 10° C | 74% | 1012.1 hPa | 0 mm | - | - | - |
| 1777651341 | 10.56° C | 74% | 1012.3 hPa | 0 mm | - | - | - |
| 1777651021 | 10° C | 77% | 1012.4 hPa | 0 mm | - | - | - |
| 1777650694 | 10.56° C | 76% | 1012.2 hPa | 0 mm | - | - | - |
| 1777650381 | 10.56° C | 73% | 1012.1 hPa | 0 mm | - | - | - |
| 1777649734 | 10.56° C | 72% | 1012.3 hPa | 0 mm | - | - | - |
| 1777649373 | 9.44° C | 79% | 1012 hPa | 0 mm | - | - | - |
| 1777649014 | 8.89° C | 78% | 1012.2 hPa | 0 mm | - | - | - |
* Rain latest hour (hover to see other rain measurements)
** Current wind speed in m/s (hover to see current wind gust speed)